sensor_id;sensor_type;location;lat;lon;timestamp;pressure;altitude;pressure_sealevel;temperature;humidity
70781;BME280;59514;48.810;2.134;2022-09-09T00:00:27;99727.56;;;16.62;74.79
70781;BME280;59514;48.810;2.134;2022-09-09T00:05:41;99731.41;;;16.56;74.95
70781;BME280;59514;48.810;2.134;2022-09-09T00:08:25;99730.28;;;16.62;74.86
70781;BME280;59514;48.810;2.134;2022-09-09T00:10:59;99726.22;;;16.64;74.54
70781;BME280;59514;48.810;2.134;2022-09-09T00:16:05;99727.56;;;16.62;74.80
70781;BME280;59514;48.810;2.134;2022-09-09T00:18:53;99732.47;;;16.60;74.81
70781;BME280;59514;48.810;2.134;2022-09-09T00:21:26;99722.44;;;16.60;75.09
70781;BME280;59514;48.810;2.134;2022-09-09T00:23:56;99721.13;;;16.42;75.83
70781;BME280;59514;48.810;2.134;2022-09-09T00:29:00;99723.00;;;16.47;75.92
70781;BME280;59514;48.810;2.134;2022-09-09T00:31:30;99717.88;;;16.46;75.70
70781;BME280;59514;48.810;2.134;2022-09-09T00:34:17;99719.53;;;16.42;75.97
70781;BME280;59514;48.810;2.134;2022-09-09T00:36:45;99719.53;;;16.42;76.09
70781;BME280;59514;48.810;2.134;2022-09-09T00:44:34;99717.34;;;16.38;76.69
70781;BME280;59514;48.810;2.134;2022-09-09T00:50:03;99716.25;;;16.45;77.31
70781;BME280;59514;48.810;2.134;2022-09-09T00:55:19;99705.47;;;16.29;77.81
70781;BME280;59514;48.810;2.134;2022-09-09T00:57:48;99695.75;;;16.23;77.90
70781;BME280;59514;48.810;2.134;2022-09-09T01:00:35;99702.75;;;16.34;77.38
70781;BME280;59514;48.810;2.134;2022-09-09T01:08:52;99689.47;;;16.33;77.46
70781;BME280;59514;48.810;2.134;2022-09-09T01:11:25;99699.53;;;16.27;77.82
70781;BME280;59514;48.810;2.134;2022-09-09T01:16:37;99696.34;;;16.20;78.43
70781;BME280;59514;48.810;2.134;2022-09-09T01:19:05;99689.31;;;16.14;78.96
70781;BME280;59514;48.810;2.134;2022-09-09T01:21:49;99701.47;;;16.17;78.58
70781;BME280;59514;48.810;2.134;2022-09-09T01:24:24;99691.47;;;16.17;78.76
70781;BME280;59514;48.810;2.134;2022-09-09T01:26:56;99689.53;;;16.23;78.32
70781;BME280;59514;48.810;2.134;2022-09-09T01:29:25;99694.16;;;16.17;78.79
70781;BME280;59514;48.810;2.134;2022-09-09T01:32:02;99687.69;;;16.18;78.95
70781;BME280;59514;48.810;2.134;2022-09-09T01:34:34;99688.78;;;16.12;79.19
70781;BME280;59514;48.810;2.134;2022-09-09T01:37:09;99710.94;;;16.19;78.76
70781;BME280;59514;48.810;2.134;2022-09-09T01:39:37;99695.50;;;16.20;78.79
70781;BME280;59514;48.810;2.134;2022-09-09T01:42:05;99700.69;;;16.16;78.73
70781;BME280;59514;48.810;2.134;2022-09-09T01:44:32;99699.28;;;16.19;79.05
70781;BME280;59514;48.810;2.134;2022-09-09T01:46:57;99692.28;;;16.18;79.04
70781;BME280;59514;48.810;2.134;2022-09-09T01:49:23;99694.75;;;16.09;79.66
70781;BME280;59514;48.810;2.134;2022-09-09T01:51:52;99689.84;;;16.16;79.11
70781;BME280;59514;48.810;2.134;2022-09-09T01:54:19;99681.72;;;16.16;79.26
70781;BME280;59514;48.810;2.134;2022-09-09T01:59:49;99683.88;;;16.19;79.20
70781;BME280;59514;48.810;2.134;2022-09-09T02:04:48;99682.88;;;16.00;79.66
70781;BME280;59514;48.810;2.134;2022-09-09T02:07:32;99676.34;;;16.06;80.05
70781;BME280;59514;48.810;2.134;2022-09-09T02:10:17;99678.00;;;16.02;80.16
70781;BME280;59514;48.810;2.134;2022-09-09T02:12:48;99678.53;;;15.99;79.92
70781;BME280;59514;48.810;2.134;2022-09-09T02:15:42;99674.75;;;16.00;80.18
70781;BME280;59514;48.810;2.134;2022-09-09T02:18:09;99687.19;;;16.01;80.10
70781;BME280;59514;48.810;2.134;2022-09-09T02:20:38;99673.13;;;16.04;80.21
70781;BME280;59514;48.810;2.134;2022-09-09T02:23:05;99671.72;;;16.07;80.08
70781;BME280;59514;48.810;2.134;2022-09-09T02:25:33;99674.19;;;16.03;79.81
70781;BME280;59514;48.810;2.134;2022-09-09T02:28:00;99680.16;;;16.00;79.95
70781;BME280;59514;48.810;2.134;2022-09-09T02:30:29;99665.53;;;16.01;80.67
70781;BME280;59514;48.810;2.134;2022-09-09T02:32:57;99690.19;;;16.00;80.15
70781;BME280;59514;48.810;2.134;2022-09-09T02:35:25;99666.88;;;16.04;80.08
70781;BME280;59514;48.810;2.134;2022-09-09T02:37:55;99665.00;;;16.04;80.17
70781;BME280;59514;48.810;2.134;2022-09-09T02:40:21;99667.69;;;16.04;80.32
70781;BME280;59514;48.810;2.134;2022-09-09T02:42:48;99658.19;;;16.07;80.19
70781;BME280;59514;48.810;2.134;2022-09-09T02:45:18;99669.88;;;16.02;80.11
70781;BME280;59514;48.810;2.134;2022-09-09T02:47:59;99662.53;;;16.08;80.34
70781;BME280;59514;48.810;2.134;2022-09-09T02:50:34;99663.88;;;16.05;80.11
70781;BME280;59514;48.810;2.134;2022-09-09T02:58:05;99672.00;;;16.05;80.26
70781;BME280;59514;48.810;2.134;2022-09-09T03:00:32;99673.38;;;16.03;80.50
70781;BME280;59514;48.810;2.134;2022-09-09T03:03:02;99665.00;;;16.04;80.63
70781;BME280;59514;48.810;2.134;2022-09-09T03:05:28;99669.84;;;16.07;80.17
70781;BME280;59514;48.810;2.134;2022-09-09T03:07:53;99689.38;;;15.99;80.71
70781;BME280;59514;48.810;2.134;2022-09-09T03:10:18;99682.34;;;15.98;80.55
70781;BME280;59514;48.810;2.134;2022-09-09T03:12:44;99676.34;;;16.01;80.78
70781;BME280;59514;48.810;2.134;2022-09-09T03:15:09;99679.88;;;16.02;80.40
70781;BME280;59514;48.810;2.134;2022-09-09T03:17:35;99688.25;;;16.05;79.95
70781;BME280;59514;48.810;2.134;2022-09-09T03:20:02;99674.72;;;16.05;80.02
70781;BME280;59514;48.810;2.134;2022-09-09T03:22:28;99689.88;;;16.06;80.38
70781;BME280;59514;48.810;2.134;2022-09-09T03:24:53;99685.53;;;16.05;80.03
70781;BME280;59514;48.810;2.134;2022-09-09T03:27:18;99682.84;;;16.05;80.15
70781;BME280;59514;48.810;2.134;2022-09-09T03:29:45;99680.66;;;16.12;79.94
70781;BME280;59514;48.810;2.134;2022-09-09T03:32:10;99671.19;;;16.10;79.81
70781;BME280;59514;48.810;2.134;2022-09-09T03:34:35;99672.25;;;16.09;80.10
70781;BME280;59514;48.810;2.134;2022-09-09T03:37:04;99677.91;;;16.17;80.00
70781;BME280;59514;48.810;2.134;2022-09-09T03:39:30;99681.19;;;16.14;80.12
70781;BME280;59514;48.810;2.134;2022-09-09T03:41:56;99684.97;;;16.13;80.09
70781;BME280;59514;48.810;2.134;2022-09-09T03:44:21;99681.19;;;16.14;79.91
70781;BME280;59514;48.810;2.134;2022-09-09T03:46:46;99679.84;;;16.07;79.97
70781;BME280;59514;48.810;2.134;2022-09-09T03:49:12;99677.41;;;16.05;80.29
70781;BME280;59514;48.810;2.134;2022-09-09T03:51:37;99672.28;;;16.04;80.74
70781;BME280;59514;48.810;2.134;2022-09-09T03:54:03;99680.66;;;16.07;80.32
70781;BME280;59514;48.810;2.134;2022-09-09T03:56:30;99676.34;;;16.06;80.49
70781;BME280;59514;48.810;2.134;2022-09-09T03:58:56;99679.06;;;16.01;80.59
70781;BME280;59514;48.810;2.134;2022-09-09T04:01:22;99669.59;;;16.04;80.54
70781;BME280;59514;48.810;2.134;2022-09-09T04:03:48;99663.34;;;16.03;80.52
70781;BME280;59514;48.810;2.134;2022-09-09T04:06:14;99662.53;;;16.03;80.36
70781;BME280;59514;48.810;2.134;2022-09-09T04:08:40;99658.22;;;15.97;81.01
70781;BME280;59514;48.810;2.134;2022-09-09T04:11:06;99662.56;;;15.98;81.02
70781;BME280;59514;48.810;2.134;2022-09-09T04:13:33;99674.75;;;15.95;81.33
70781;BME280;59514;48.810;2.134;2022-09-09T04:16:00;99666.13;;;15.88;81.38
70781;BME280;59514;48.810;2.134;2022-09-09T04:18:27;99669.13;;;15.87;81.49
70781;BME280;59514;48.810;2.134;2022-09-09T04:20:56;99672.66;;;15.82;81.51
70781;BME280;59514;48.810;2.134;2022-09-09T04:23:23;99666.66;;;15.85;81.75
70781;BME280;59514;48.810;2.134;2022-09-09T04:25:53;99670.97;;;15.91;81.59
70781;BME280;59514;48.810;2.134;2022-09-09T04:28:21;99669.13;;;15.87;81.37
70781;BME280;59514;48.810;2.134;2022-09-09T04:30:47;99677.50;;;15.90;81.60
70781;BME280;59514;48.810;2.134;2022-09-09T04:33:14;99666.13;;;15.88;81.47
70781;BME280;59514;48.810;2.134;2022-09-09T04:35:44;99673.19;;;15.84;81.64
70781;BME280;59514;48.810;2.134;2022-09-09T04:38:09;99670.75;;;15.78;81.76
70781;BME280;59514;48.810;2.134;2022-09-09T04:40:35;99662.34;;;15.79;82.01
70781;BME280;59514;48.810;2.134;2022-09-09T04:43:02;99667.78;;;15.79;82.11
70781;BME280;59514;48.810;2.134;2022-09-09T04:45:30;99664.53;;;15.77;81.81
70781;BME280;59514;48.810;2.134;2022-09-09T04:47:56;99666.41;;;15.82;82.04
70781;BME280;59514;48.810;2.134;2022-09-09T04:50:22;99677.00;;;15.78;81.89
70781;BME280;59514;48.810;2.134;2022-09-09T04:52:47;99668.34;;;15.76;81.64
70781;BME280;59514;48.810;2.134;2022-09-09T04:55:13;99670.25;;;15.71;81.84
70781;BME280;59514;48.810;2.134;2022-09-09T04:57:39;99667.53;;;15.76;81.62
70781;BME280;59514;48.810;2.134;2022-09-09T05:00:05;99684.88;;;15.75;82.06
70781;BME280;59514;48.810;2.134;2022-09-09T05:02:31;99682.44;;;15.68;82.20
70781;BME280;59514;48.810;2.134;2022-09-09T05:04:57;99674.81;;;15.75;81.84
70781;BME280;59514;48.810;2.134;2022-09-09T05:07:23;99678.34;;;15.76;82.08
70781;BME280;59514;48.810;2.134;2022-09-09T05:09:48;99687.28;;;15.76;81.93
70781;BME280;59514;48.810;2.134;2022-09-09T05:12:15;99694.88;;;15.74;82.20
70781;BME280;59514;48.810;2.134;2022-09-09T05:14:42;99690.56;;;15.63;82.15
70781;BME280;59514;48.810;2.134;2022-09-09T05:17:07;99694.34;;;15.67;82.53
70781;BME280;59514;48.810;2.134;2022-09-09T05:19:33;99698.66;;;15.73;82.01
70781;BME280;59514;48.810;2.134;2022-09-09T05:21:58;99693.78;;;15.65;82.76
70781;BME280;59514;48.810;2.134;2022-09-09T05:24:23;99693.25;;;15.68;82.84
70781;BME280;59514;48.810;2.134;2022-09-09T05:26:49;99695.94;;;15.73;82.50
70781;BME280;59514;48.810;2.134;2022-09-09T05:29:14;99685.69;;;15.70;82.95
70781;BME280;59514;48.810;2.134;2022-09-09T05:31:39;99684.03;;;15.69;83.20
70781;BME280;59514;48.810;2.134;2022-09-09T05:34:05;99692.16;;;15.74;82.74
70781;BME280;59514;48.810;2.134;2022-09-09T05:36:31;99690.00;;;15.76;83.00
70781;BME280;59514;48.810;2.134;2022-09-09T05:38:56;99688.09;;;15.77;82.72
70781;BME280;59514;48.810;2.134;2022-09-09T05:41:22;99687.28;;;15.76;82.82
70781;BME280;59514;48.810;2.134;2022-09-09T05:43:48;99688.88;;;15.82;82.91
70781;BME280;59514;48.810;2.134;2022-09-09T05:46:19;99688.34;;;15.75;83.36
70781;BME280;59514;48.810;2.134;2022-09-09T05:48:46;99684.28;;;15.83;83.05
70781;BME280;59514;48.810;2.134;2022-09-09T05:51:14;99692.13;;;15.84;83.14
70781;BME280;59514;48.810;2.134;2022-09-09T05:53:43;99690.75;;;15.92;82.71
70781;BME280;59514;48.810;2.134;2022-09-09T05:56:16;99688.28;;;15.95;82.28
70781;BME280;59514;48.810;2.134;2022-09-09T05:58:45;99689.94;;;15.96;82.38
70781;BME280;59514;48.810;2.134;2022-09-09T06:01:20;99683.94;;;15.99;82.17
70781;BME280;59514;48.810;2.134;2022-09-09T06:03:47;99694.25;;;16.02;81.96
70781;BME280;59514;48.810;2.134;2022-09-09T06:06:21;99700.19;;;16.04;82.12
70781;BME280;59514;48.810;2.134;2022-09-09T06:08:47;99689.31;;;16.09;81.61
70781;BME280;59514;48.810;2.134;2022-09-09T06:11:18;99698.28;;;16.05;81.78
70781;BME280;59514;48.810;2.134;2022-09-09T06:13:44;99688.78;;;16.12;81.26
70781;BME280;59514;48.810;2.134;2022-09-09T06:16:12;99704.22;;;16.12;81.10
70781;BME280;59514;48.810;2.134;2022-09-09T06:18:39;99699.34;;;16.09;81.59
70781;BME280;59514;48.810;2.134;2022-09-09T06:21:06;99703.44;;;16.06;81.82
70781;BME280;59514;48.810;2.134;2022-09-09T06:23:33;99703.69;;;16.05;81.97
70781;BME280;59514;48.810;2.134;2022-09-09T06:26:07;99704.75;;;16.09;81.71
70781;BME280;59514;48.810;2.134;2022-09-09T06:28:33;99699.63;;;16.12;81.46
70781;BME280;59514;48.810;2.134;2022-09-09T06:31:00;99709.63;;;16.12;81.27
70781;BME280;59514;48.810;2.134;2022-09-09T06:33:26;99705.56;;;16.09;81.32
70781;BME280;59514;48.810;2.134;2022-09-09T06:35:53;99701.78;;;16.10;81.37
70781;BME280;59514;48.810;2.134;2022-09-09T06:38:19;99704.50;;;16.10;81.49
70781;BME280;59514;48.810;2.134;2022-09-09T06:40:55;99700.72;;;16.06;81.61
70781;BME280;59514;48.810;2.134;2022-09-09T06:43:22;99708.28;;;16.14;81.25
70781;BME280;59514;48.810;2.134;2022-09-09T06:46:02;99703.66;;;16.15;81.42
70781;BME280;59514;48.810;2.134;2022-09-09T06:48:28;99708.28;;;16.14;81.17
70781;BME280;59514;48.810;2.134;2022-09-09T06:51:04;99706.63;;;16.18;81.08
70781;BME280;59514;48.810;2.134;2022-09-09T06:53:31;99706.06;;;16.26;80.73
70781;BME280;59514;48.810;2.134;2022-09-09T06:55:59;99700.06;;;16.29;80.55
70781;BME280;59514;48.810;2.134;2022-09-09T06:58:25;99701.69;;;16.30;80.55
70781;BME280;59514;48.810;2.134;2022-09-09T07:00:51;99714.09;;;16.36;80.32
70781;BME280;59514;48.810;2.134;2022-09-09T07:03:16;99722.25;;;16.36;80.25
70781;BME280;59514;48.810;2.134;2022-09-09T07:05:42;99703.56;;;16.35;80.22
70781;BME280;59514;48.810;2.134;2022-09-09T07:08:10;99718.47;;;16.37;80.08
70781;BME280;59514;48.810;2.134;2022-09-09T07:10:35;99719.53;;;16.42;79.94
70781;BME280;59514;48.810;2.134;2022-09-09T07:13:01;99722.81;;;16.33;80.30
70781;BME280;59514;48.810;2.134;2022-09-09T07:15:27;99721.69;;;16.39;79.75
70781;BME280;59514;48.810;2.134;2022-09-09T07:17:52;99715.47;;;16.39;79.27
70781;BME280;59514;48.810;2.134;2022-09-09T07:20:19;99724.13;;;16.46;79.52
70781;BME280;59514;48.810;2.134;2022-09-09T07:22:45;99720.59;;;16.46;79.58
70781;BME280;59514;48.810;2.134;2022-09-09T07:25:10;99710.56;;;16.46;79.53
70781;BME280;59514;48.810;2.134;2022-09-09T07:27:36;99726.53;;;16.53;79.09
70781;BME280;59514;48.810;2.134;2022-09-09T07:30:01;99731.34;;;16.61;78.90
70781;BME280;59514;48.810;2.134;2022-09-09T07:32:27;99734.94;;;16.51;78.15
70781;BME280;59514;48.810;2.134;2022-09-09T07:34:53;99753.63;;;16.53;79.46
70781;BME280;59514;48.810;2.134;2022-09-09T07:37:18;99739.03;;;16.44;79.94
70781;BME280;59514;48.810;2.134;2022-09-09T07:39:44;99749.84;;;16.44;79.48
70781;BME280;59514;48.810;2.134;2022-09-09T07:42:10;99741.19;;;16.42;79.04
70781;BME280;59514;48.810;2.134;2022-09-09T07:44:39;99740.34;;;16.56;78.71
70781;BME280;59514;48.810;2.134;2022-09-09T07:47:05;99731.09;;;16.62;77.95
70781;BME280;59514;48.810;2.134;2022-09-09T07:49:31;99725.94;;;16.66;77.80
70781;BME280;59514;48.810;2.134;2022-09-09T07:51:57;99733.19;;;16.75;76.88
70781;BME280;59514;48.810;2.134;2022-09-09T07:54:23;99733.41;;;16.84;76.05
70781;BME280;59514;48.810;2.134;2022-09-09T07:56:49;99736.88;;;16.89;75.78
70781;BME280;59514;48.810;2.134;2022-09-09T07:59:16;99747.44;;;16.96;75.82
70781;BME280;59514;48.810;2.134;2022-09-09T08:01:46;99740.66;;;16.88;75.94
70781;BME280;59514;48.810;2.134;2022-09-09T08:04:15;99746.91;;;16.89;76.07
70781;BME280;59514;48.810;2.134;2022-09-09T08:06:50;99751.75;;;16.97;75.77
70781;BME280;59514;48.810;2.134;2022-09-09T08:09:18;99750.09;;;17.01;76.01
70781;BME280;59514;48.810;2.134;2022-09-09T08:11:44;99745.25;;;16.98;75.42
70781;BME280;59514;48.810;2.134;2022-09-09T08:14:11;99759.63;;;16.93;75.46
70781;BME280;59514;48.810;2.134;2022-09-09T08:16:42;99761.50;;;16.98;75.41
70781;BME280;59514;48.810;2.134;2022-09-09T08:19:08;99764.22;;;16.98;75.25
70781;BME280;59514;48.810;2.134;2022-09-09T08:21:35;99775.00;;;17.08;75.25
70781;BME280;59514;48.810;2.134;2022-09-09T08:24:02;99755.69;;;17.14;74.45
70781;BME280;59514;48.810;2.134;2022-09-09T08:26:36;99762.97;;;17.19;74.24
70781;BME280;59514;48.810;2.134;2022-09-09T08:29:03;99759.75;;;17.17;74.37
70781;BME280;59514;48.810;2.134;2022-09-09T08:34:06;99766.75;;;17.23;73.65
70781;BME280;59514;48.810;2.134;2022-09-09T08:36:36;99772.25;;;17.13;74.42
70781;BME280;59514;48.810;2.134;2022-09-09T08:39:04;99786.09;;;17.11;73.92
70781;BME280;59514;48.810;2.134;2022-09-09T08:50:05;99780.78;;;17.30;73.69
70781;BME280;59514;48.810;2.134;2022-09-09T08:57:50;99781.94;;;17.24;73.54
70781;BME280;59514;48.810;2.134;2022-09-09T09:00:17;99791.66;;;17.30;72.92
70781;BME280;59514;48.810;2.134;2022-09-09T09:02:53;99793.75;;;17.38;73.38
70781;BME280;59514;48.810;2.134;2022-09-09T09:05:32;99793.44;;;17.50;73.06
70781;BME280;59514;48.810;2.134;2022-09-09T09:10:36;99791.34;;;17.70;72.20
70781;BME280;59514;48.810;2.134;2022-09-09T09:13:11;99795.50;;;17.91;71.88
70781;BME280;59514;48.810;2.134;2022-09-09T09:15:40;99797.09;;;17.97;71.15
70781;BME280;59514;48.810;2.134;2022-09-09T09:18:08;99806.41;;;17.86;71.29
70781;BME280;59514;48.810;2.134;2022-09-09T09:20:52;99817.88;;;17.78;71.33
70781;BME280;59514;48.810;2.134;2022-09-09T09:23:22;99813.38;;;17.64;72.14
70781;BME280;59514;48.810;2.134;2022-09-09T09:25:50;99831.09;;;17.61;71.88
70781;BME280;59514;48.810;2.134;2022-09-09T09:28:23;99821.38;;;17.50;72.41
70781;BME280;59514;48.810;2.134;2022-09-09T09:35:57;99838.69;;;17.59;73.11
70781;BME280;59514;48.810;2.134;2022-09-09T09:38:26;99825.56;;;17.71;72.46
70781;BME280;59514;48.810;2.134;2022-09-09T09:40:55;99828.97;;;17.87;71.50
70781;BME280;59514;48.810;2.134;2022-09-09T09:43:26;99835.03;;;18.02;71.48
70781;BME280;59514;48.810;2.134;2022-09-09T09:45:52;99832.47;;;18.16;71.08
70781;BME280;59514;48.810;2.134;2022-09-09T09:48:18;99834.22;;;18.31;69.97
70781;BME280;59514;48.810;2.134;2022-09-09T09:50:56;99838.03;;;18.30;69.79
70781;BME280;59514;48.810;2.134;2022-09-09T09:53:34;99841.72;;;18.15;69.87
70781;BME280;59514;48.810;2.134;2022-09-09T09:56:02;99840.56;;;18.21;70.50
70781;BME280;59514;48.810;2.134;2022-09-09T09:58:49;99831.59;;;18.21;69.81
70781;BME280;59514;48.810;2.134;2022-09-09T10:01:30;99846.00;;;18.21;68.97
70781;BME280;59514;48.810;2.134;2022-09-09T10:06:36;99842.09;;;18.03;70.11
70781;BME280;59514;48.810;2.134;2022-09-09T10:09:17;99850.72;;;18.11;69.33
70781;BME280;59514;48.810;2.134;2022-09-09T10:19:44;99844.81;;;18.03;70.21
70781;BME280;59514;48.810;2.134;2022-09-09T10:22:25;99849.44;;;18.03;70.93
70781;BME280;59514;48.810;2.134;2022-09-09T10:28:14;99859.88;;;18.20;70.59
70781;BME280;59514;48.810;2.134;2022-09-09T10:36:20;99868.88;;;18.44;69.28
70781;BME280;59514;48.810;2.134;2022-09-09T10:38:47;99859.19;;;18.33;69.27
70781;BME280;59514;48.810;2.134;2022-09-09T10:41:18;99866.59;;;18.27;69.30
70781;BME280;59514;48.810;2.134;2022-09-09T10:44:06;99867.56;;;18.13;68.86
70781;BME280;59514;48.810;2.134;2022-09-09T10:52:29;99863.91;;;18.22;70.01
70781;BME280;59514;48.810;2.134;2022-09-09T10:55:10;99869.59;;;18.26;69.62
70781;BME280;59514;48.810;2.134;2022-09-09T10:57:39;99857.47;;;18.42;68.09
70781;BME280;59514;48.810;2.134;2022-09-09T11:00:18;99861.78;;;18.48;66.95
70781;BME280;59514;48.810;2.134;2022-09-09T11:02:48;99856.28;;;18.53;66.72
70781;BME280;59514;48.810;2.134;2022-09-09T11:07:54;99851.66;;;18.77;65.34
70781;BME280;59514;48.810;2.134;2022-09-09T11:10:28;99910.03;;;18.84;65.62
70781;BME280;59514;48.810;2.134;2022-09-09T11:13:00;99859.22;;;18.80;65.68
70781;BME280;59514;48.810;2.134;2022-09-09T11:15:39;99859.53;;;18.97;65.51
70781;BME280;59514;48.810;2.134;2022-09-09T11:18:11;99873.38;;;19.01;65.06
70781;BME280;59514;48.810;2.134;2022-09-09T11:20:39;99861.06;;;18.84;65.32
70781;BME280;59514;48.810;2.134;2022-09-09T11:23:11;99861.59;;;18.86;65.18
70781;BME280;59514;48.810;2.134;2022-09-09T11:25:45;99856.81;;;18.78;65.85
70781;BME280;59514;48.810;2.134;2022-09-09T11:28:43;99867.59;;;18.83;65.86
70781;BME280;59514;48.810;2.134;2022-09-09T11:40:19;99865.69;;;18.84;66.95
70781;BME280;59514;48.810;2.134;2022-09-09T11:42:48;99877.75;;;18.78;66.20
70781;BME280;59514;48.810;2.134;2022-09-09T11:45:23;99870.56;;;18.87;66.97
70781;BME280;59514;48.810;2.134;2022-09-09T11:47:52;99870.56;;;18.87;66.23
70781;BME280;59514;48.810;2.134;2022-09-09T11:52:50;99869.25;;;18.84;67.60
70781;BME280;59514;48.810;2.134;2022-09-09T11:55:26;99896.78;;;18.78;70.00
70781;BME280;59514;48.810;2.134;2022-09-09T11:58:00;99884.34;;;18.48;71.40
70781;BME280;59514;48.810;2.134;2022-09-09T12:02:59;99882.84;;;18.61;73.32
70781;BME280;59514;48.810;2.134;2022-09-09T12:05:44;99886.53;;;18.46;72.88
70781;BME280;59514;48.810;2.134;2022-09-09T12:08:16;99886.84;;;18.40;73.48
70781;BME280;59514;48.810;2.134;2022-09-09T12:10:54;99883.34;;;18.11;74.24
70781;BME280;59514;48.810;2.134;2022-09-09T12:13:25;99894.91;;;17.92;77.58
70781;BME280;59514;48.810;2.134;2022-09-09T12:15:56;99893.81;;;17.93;77.63
70781;BME280;59514;48.810;2.134;2022-09-09T12:18:23;99901.97;;;17.93;78.11
70781;BME280;59514;48.810;2.134;2022-09-09T12:23:46;99895.44;;;17.94;76.08
70781;BME280;59514;48.810;2.134;2022-09-09T12:26:43;99891.13;;;17.88;76.58
70781;BME280;59514;48.810;2.134;2022-09-09T12:29:45;99895.50;;;17.84;76.63
70781;BME280;59514;48.810;2.134;2022-09-09T12:32:16;99893.63;;;17.80;77.66
70781;BME280;59514;48.810;2.134;2022-09-09T12:37:30;99893.72;;;17.70;78.91
70781;BME280;59514;48.810;2.134;2022-09-09T12:39:59;99891.88;;;17.60;79.03
70781;BME280;59514;48.810;2.134;2022-09-09T12:42:27;99893.03;;;17.54;78.46
70781;BME280;59514;48.810;2.134;2022-09-09T12:44:57;99897.41;;;17.45;79.10
70781;BME280;59514;48.810;2.134;2022-09-09T12:47:38;99899.06;;;17.36;80.29
70781;BME280;59514;48.810;2.134;2022-09-09T12:50:16;99913.75;;;17.35;80.41
70781;BME280;59514;48.810;2.134;2022-09-09T12:52:42;99914.03;;;17.29;81.83
70781;BME280;59514;48.810;2.134;2022-09-09T12:55:16;99924.66;;;17.25;82.32
70781;BME280;59514;48.810;2.134;2022-09-09T12:57:43;99923.34;;;17.12;83.07
70781;BME280;59514;48.810;2.134;2022-09-09T13:00:17;99922.66;;;16.92;83.75
70781;BME280;59514;48.810;2.134;2022-09-09T13:02:51;99928.06;;;16.87;84.84
70781;BME280;59514;48.810;2.134;2022-09-09T13:07:50;99937.81;;;16.93;86.22
70781;BME280;59514;48.810;2.134;2022-09-09T13:10:22;99957.69;;;16.68;87.58
70781;BME280;59514;48.810;2.134;2022-09-09T13:12:49;99946.31;;;16.46;88.38
70781;BME280;59514;48.810;2.134;2022-09-09T13:15:21;99942.81;;;16.25;89.40
70781;BME280;59514;48.810;2.134;2022-09-09T13:18:11;99951.47;;;16.37;91.39
70781;BME280;59514;48.810;2.134;2022-09-09T13:20:38;99955.78;;;16.38;90.37
70781;BME280;59514;48.810;2.134;2022-09-09T13:23:04;99945.78;;;16.34;91.86
70781;BME280;59514;48.810;2.134;2022-09-09T13:25:30;99945.00;;;16.28;90.75
70781;BME280;59514;48.810;2.134;2022-09-09T13:28:00;99945.50;;;16.40;90.42
70781;BME280;59514;48.810;2.134;2022-09-09T13:30:36;99934.13;;;16.54;91.13
70781;BME280;59514;48.810;2.134;2022-09-09T13:35:54;99934.66;;;16.61;90.13
70781;BME280;59514;48.810;2.134;2022-09-09T13:38:21;99938.44;;;16.70;89.42
70781;BME280;59514;48.810;2.134;2022-09-09T13:40:59;99937.91;;;16.68;89.77
70781;BME280;59514;48.810;2.134;2022-09-09T13:43:30;99934.97;;;16.54;88.51
70781;BME280;59514;48.810;2.134;2022-09-09T13:45:59;99921.66;;;16.58;88.64
70781;BME280;59514;48.810;2.134;2022-09-09T13:48:26;99928.16;;;16.57;87.98
70781;BME280;59514;48.810;2.134;2022-09-09T13:50:57;99927.34;;;16.46;88.79
70781;BME280;59514;48.810;2.134;2022-09-09T13:53:22;99941.72;;;16.62;89.73
70781;BME280;59514;48.810;2.134;2022-09-09T13:55:47;99937.03;;;16.82;89.27
70781;BME280;59514;48.810;2.134;2022-09-09T13:58:17;99926.53;;;17.24;87.67
70781;BME280;59514;48.810;2.134;2022-09-09T14:00:46;99922.75;;;17.74;86.10
70781;BME280;59514;48.810;2.134;2022-09-09T14:03:13;99914.34;;;18.04;84.52
70781;BME280;59514;48.810;2.134;2022-09-09T14:05:39;99912.19;;;18.35;83.47
70781;BME280;59514;48.810;2.134;2022-09-09T14:08:06;99918.59;;;17.82;84.47
70781;BME280;59514;48.810;2.134;2022-09-09T14:10:31;99911.56;;;17.81;86.02
70781;BME280;59514;48.810;2.134;2022-09-09T14:12:57;99916.84;;;18.01;86.05
70781;BME280;59514;48.810;2.134;2022-09-09T14:15:22;99917.06;;;18.04;85.06
70781;BME280;59514;48.810;2.134;2022-09-09T14:17:47;99918.88;;;17.85;85.33
70781;BME280;59514;48.810;2.134;2022-09-09T14:20:14;99926.63;;;17.63;86.70
70781;BME280;59514;48.810;2.134;2022-09-09T14:22:41;99928.59;;;17.48;87.89
70781;BME280;59514;48.810;2.134;2022-09-09T14:25:07;99933.22;;;17.47;87.36
70781;BME280;59514;48.810;2.134;2022-09-09T14:27:32;99923.88;;;17.68;86.06
70781;BME280;59514;48.810;2.134;2022-09-09T14:29:58;99928.75;;;17.71;85.25
70781;BME280;59514;48.810;2.134;2022-09-09T14:32:26;99931.25;;;17.63;84.78
70781;BME280;59514;48.810;2.134;2022-09-09T14:34:51;99923.16;;;17.58;84.79
70781;BME280;59514;48.810;2.134;2022-09-09T14:37:17;99931.56;;;17.56;84.30
70781;BME280;59514;48.810;2.134;2022-09-09T14:39:43;99920.88;;;17.70;84.72
70781;BME280;59514;48.810;2.134;2022-09-09T14:42:10;99926.56;;;17.73;84.07
70781;BME280;59514;48.810;2.134;2022-09-09T14:44:36;99923.19;;;17.91;83.28
70781;BME280;59514;48.810;2.134;2022-09-09T14:47:03;99927.09;;;18.43;81.01
70781;BME280;59514;48.810;2.134;2022-09-09T14:49:29;99930.75;;;18.80;78.96
70781;BME280;59514;48.810;2.134;2022-09-09T14:51:54;99931.69;;;18.95;78.94
70781;BME280;59514;48.810;2.134;2022-09-09T14:54:19;99936.75;;;19.01;77.73
70781;BME280;59514;48.810;2.134;2022-09-09T14:56:46;99932.06;;;19.49;75.29
70781;BME280;59514;48.810;2.134;2022-09-09T14:59:12;99936.13;;;19.51;74.68
70781;BME280;59514;48.810;2.134;2022-09-09T15:01:38;99921.03;;;19.59;74.30
70781;BME280;59514;48.810;2.134;2022-09-09T15:04:04;99917.53;;;19.58;73.39
70781;BME280;59514;48.810;2.134;2022-09-09T15:06:32;99916.25;;;19.69;74.39